Time;durP1;ratioP1;P1;durP2;ratioP2;P2;SDS_P1;SDS_P2;PMS_P1;PMS_P2;Temp;Humidity;BMP_temperature;BMP_pressure;BME280_temperature;BME280_humidity;BME280_pressure;Samples;Min_cycle;Max_cycle;Signal;HPM_P1;HPM_P2
2023/01/24 00:00:39;;;;;;;101.63;41.50;;;2.00;99.90;;;;;;2603192;54;20958;31
2023/01/24 00:03:15;;;;;;;107.15;41.40;;;2.00;99.90;;;;;;2621667;46;20313;31
2023/01/24 00:05:52;;;;;;;94.95;40.95;;;2.00;99.90;;;;;;2621672;46;20026;31
2023/01/24 00:08:28;;;;;;;103.60;39.33;;;1.90;99.90;;;;;;2621658;46;20026;31
2023/01/24 00:11:03;;;;;;;103.13;40.38;;;2.00;99.90;;;;;;2701812;39;20560;31
2023/01/24 00:13:38;;;;;;;104.00;40.55;;;2.00;99.90;;;;;;2603365;54;20093;31
2023/01/24 00:16:14;;;;;;;109.70;44.13;;;2.00;99.90;;;;;;2603073;54;20030;31
2023/01/24 00:18:49;;;;;;;95.93;41.40;;;2.00;99.90;;;;;;2603174;54;20044;31
2023/01/24 00:21:27;;;;;;;94.38;41.50;;;2.00;99.90;;;;;;2603103;54;20970;31
2023/01/24 00:24:01;;;;;;;102.00;43.50;;;2.00;99.90;;;;;;2603304;54;20167;31
2023/01/24 00:26:36;;;;;;;93.78;41.15;;;2.00;99.90;;;;;;2603140;54;20031;31
2023/01/24 00:29:10;;;;;;;89.45;39.20;;;2.10;99.90;;;;;;2603362;54;20093;31
2023/01/24 00:31:44;;;;;;;108.10;44.85;;;2.10;99.90;;;;;;2603019;54;21048;31
2023/01/24 00:34:20;;;;;;;101.13;45.72;;;2.10;99.90;;;;;;2603119;54;20026;31
2023/01/24 00:36:57;;;;;;;96.80;44.03;;;2.10;99.90;;;;;;2701752;39;20640;31
2023/01/24 00:39:32;;;;;;;96.78;44.05;;;2.10;99.90;;;;;;2602902;54;20102;31
2023/01/24 00:42:07;;;;;;;96.70;44.92;;;2.10;99.90;;;;;;2602898;54;20037;31
2023/01/24 00:44:43;;;;;;;95.10;43.50;;;2.10;99.90;;;;;;2621533;47;20836;31
2023/01/24 00:47:18;;;;;;;101.60;43.90;;;2.20;99.90;;;;;;2603031;54;20023;31
2023/01/24 00:49:52;;;;;;;98.47;43.53;;;2.10;99.90;;;;;;2603010;54;20035;31
2023/01/24 00:52:29;;;;;;;103.15;47.05;;;2.10;99.90;;;;;;2621438;47;20037;31
2023/01/24 00:55:04;;;;;;;102.05;46.65;;;2.10;99.90;;;;;;2603077;54;20052;31
2023/01/24 00:57:39;;;;;;;94.97;43.95;;;2.10;99.90;;;;;;2602937;54;20093;31
2023/01/24 01:00:14;;;;;;;111.55;47.33;;;2.10;99.90;;;;;;2602977;54;20672;31
2023/01/24 01:02:49;;;;;;;88.20;41.75;;;2.10;99.90;;;;;;2603207;54;20159;31
2023/01/24 01:05:27;;;;;;;104.93;43.67;;;2.10;99.90;;;;;;2603066;54;20038;31
2023/01/24 01:08:06;;;;;;;97.65;44.10;;;2.10;99.90;;;;;;2603737;54;20081;31
2023/01/24 01:10:42;;;;;;;109.17;43.53;;;2.10;99.90;;;;;;2603732;54;20865;31
2023/01/24 01:13:17;;;;;;;90.93;43.05;;;2.10;99.90;;;;;;2604007;54;20243;31
2023/01/24 01:15:51;;;;;;;98.15;45.35;;;2.10;99.90;;;;;;2622433;46;20029;31
2023/01/24 01:18:26;;;;;;;100.57;43.05;;;2.10;99.90;;;;;;2603860;54;20836;31
2023/01/24 01:21:00;;;;;;;94.43;42.97;;;2.10;99.90;;;;;;2603703;54;20873;31
2023/01/24 01:23:38;;;;;;;94.00;45.00;;;2.10;99.90;;;;;;2603813;54;20763;31
2023/01/24 01:26:19;;;;;;;103.30;43.65;;;2.00;99.90;;;;;;2603834;54;20836;31
2023/01/24 01:28:54;;;;;;;102.18;44.53;;;2.10;99.90;;;;;;2603690;54;20092;31
2023/01/24 01:31:29;;;;;;;99.65;45.08;;;2.10;99.90;;;;;;2603623;54;20112;31
2023/01/24 01:34:04;;;;;;;101.35;45.45;;;2.10;99.90;;;;;;2603834;54;20029;31
2023/01/24 01:36:38;;;;;;;100.38;43.47;;;2.10;99.90;;;;;;2603660;54;20100;31
2023/01/24 01:39:15;;;;;;;103.30;45.47;;;2.10;99.90;;;;;;2603822;54;20120;31
2023/01/24 01:41:49;;;;;;;104.00;45.95;;;2.10;99.90;;;;;;2621955;46;20030;31
2023/01/24 01:47:18;;;;;;;100.90;45.65;;;2.00;99.90;;;;;;2603687;54;20022;31
2023/01/24 01:49:56;;;;;;;105.22;43.90;;;2.10;99.90;;;;;;2603656;54;20780;31
2023/01/24 01:52:33;;;;;;;95.25;43.35;;;2.10;99.90;;;;;;2603655;54;20022;31
2023/01/24 01:55:13;;;;;;;98.20;44.22;;;2.00;99.90;;;;;;2603521;54;20836;31
2023/01/24 01:57:47;;;;;;;84.57;40.22;;;2.00;99.90;;;;;;2603605;54;20554;31
2023/01/24 02:00:26;;;;;;;95.20;45.00;;;2.10;99.90;;;;;;2603715;54;20036;31
2023/01/24 02:03:37;;;;;;;93.65;43.95;;;2.10;99.90;;;;;;2701970;39;20492;31
2023/01/24 02:05:56;;;;;;;89.15;41.05;;;2.10;99.90;;;;;;2603538;54;20052;31
2023/01/24 02:08:31;;;;;;;85.63;39.70;;;2.10;99.90;;;;;;2603456;54;20067;31
2023/01/24 02:16:02;;;;;;;91.40;43.05;;;2.10;99.90;;;;;;2701969;39;20493;31
2023/01/24 02:16:48;;;;;;;84.22;40.83;;;2.10;99.90;;;;;;2603770;54;20833;31
2023/01/24 02:19:42;;;;;;;83.90;42.50;;;2.20;99.90;;;;;;2603631;54;20698;31
2023/01/24 02:22:18;;;;;;;80.20;40.10;;;2.10;99.90;;;;;;2603575;54;20899;31
2023/01/24 02:24:59;;;;;;;77.07;37.83;;;2.10;99.90;;;;;;2603670;54;20022;31
2023/01/24 02:27:36;;;;;;;85.43;40.08;;;2.20;99.90;;;;;;2603466;54;21108;31
2023/01/24 02:30:15;;;;;;;81.07;37.35;;;2.10;99.90;;;;;;2622042;46;20100;31
2023/01/24 02:32:50;;;;;;;78.43;39.97;;;2.10;99.90;;;;;;2702060;39;20401;31
2023/01/24 02:35:29;;;;;;;75.03;37.42;;;2.20;99.90;;;;;;2603400;54;20031;31
2023/01/24 02:38:06;;;;;;;73.47;37.15;;;2.10;99.90;;;;;;2603433;54;20870;31
2023/01/24 02:40:40;;;;;;;74.95;38.42;;;2.10;99.90;;;;;;2603485;54;20847;31
2023/01/24 02:43:18;;;;;;;79.03;38.30;;;2.10;99.90;;;;;;2622038;46;20064;31
2023/01/24 02:45:53;;;;;;;80.53;38.47;;;2.10;99.90;;;;;;2603455;54;20903;31
2023/01/24 02:48:27;;;;;;;70.10;36.28;;;2.10;99.90;;;;;;2701867;39;20683;31
2023/01/24 02:53:49;;;;;;;73.00;35.72;;;2.10;99.90;;;;;;2603622;54;20085;31
2023/01/24 02:59:13;;;;;;;77.55;37.22;;;2.10;99.90;;;;;;2603501;54;20091;31
2023/01/24 03:01:49;;;;;;;81.50;39.03;;;2.10;99.90;;;;;;2621875;46;20923;31
2023/01/24 03:04:24;;;;;;;82.37;38.57;;;2.10;99.90;;;;;;2603576;54;19934;31
2023/01/24 03:06:57;;;;;;;82.72;39.90;;;2.00;99.90;;;;;;2603338;54;20105;31
2023/01/24 03:09:38;;;;;;;80.25;37.00;;;2.00;99.90;;;;;;2603459;54;20856;31
2023/01/24 03:34:45;;;;;;;77.45;38.90;;;2.00;99.90;;;;;;2603359;54;20045;31
2023/01/24 03:40:15;;;;;;;87.78;41.80;;;2.00;99.90;;;;;;2603314;54;20134;31
2023/01/24 03:42:52;;;;;;;77.30;38.92;;;2.00;99.90;;;;;;2603405;54;20089;31
2023/01/24 03:45:33;;;;;;;79.07;38.60;;;2.00;99.90;;;;;;2720561;39;21204;31
2023/01/24 03:48:09;;;;;;;84.28;39.33;;;2.00;99.90;;;;;;2619325;46;20034;31
2023/01/24 03:53:39;;;;;;;91.00;41.33;;;2.00;99.90;;;;;;2603524;54;20023;31
2023/01/24 03:56:16;;;;;;;83.60;40.60;;;1.90;99.90;;;;;;2621693;46;20918;31
2023/01/24 03:58:55;;;;;;;85.80;40.38;;;2.00;99.90;;;;;;2603211;54;20902;31
2023/01/24 04:01:33;;;;;;;89.80;39.93;;;1.90;99.90;;;;;;2603224;54;20916;31
2023/01/24 04:04:20;;;;;;;80.60;38.60;;;1.90;99.90;;;;;;2701759;39;20662;31
2023/01/24 04:06:55;;;;;;;86.10;40.05;;;1.90;99.90;;;;;;2603193;54;20848;31
2023/01/24 04:09:30;;;;;;;82.18;38.92;;;1.80;99.90;;;;;;2603153;54;20029;31
2023/01/24 04:12:08;;;;;;;84.15;40.33;;;1.90;99.90;;;;;;2621827;46;20108;31
2023/01/24 04:14:44;;;;;;;85.65;41.10;;;1.90;99.90;;;;;;2603418;54;20030;31
2023/01/24 04:17:19;;;;;;;78.82;35.75;;;1.90;99.90;;;;;;2603238;54;19934;31
2023/01/24 04:19:58;;;;;;;81.55;37.55;;;1.90;99.90;;;;;;2603365;54;20488;31
2023/01/24 04:22:34;;;;;;;87.17;40.20;;;1.90;99.90;;;;;;2603304;54;20038;31
2023/01/24 04:25:09;;;;;;;83.82;37.45;;;1.90;99.90;;;;;;2603162;54;20314;31
2023/01/24 04:27:48;;;;;;;80.88;39.88;;;1.90;99.90;;;;;;2621675;46;20037;31
2023/01/24 04:30:29;;;;;;;75.25;36.60;;;1.90;99.90;;;;;;2603045;54;20029;31
2023/01/24 04:33:06;;;;;;;79.57;37.97;;;2.00;99.90;;;;;;2603103;54;20140;31
2023/01/24 04:35:41;;;;;;;82.80;38.33;;;1.90;99.90;;;;;;2603201;54;20832;31
2023/01/24 04:38:15;;;;;;;75.70;36.85;;;1.90;99.90;;;;;;2603667;54;20597;31
2023/01/24 04:41:12;;;;;;;84.85;39.80;;;1.90;99.90;;;;;;2622248;46;20124;31
2023/01/24 04:43:50;;;;;;;76.97;37.45;;;1.90;99.90;;;;;;2603901;54;20803;31
2023/01/24 04:46:25;;;;;;;80.95;36.60;;;1.90;99.90;;;;;;2622527;46;20034;31
2023/01/24 04:49:01;;;;;;;;;;;1.90;99.90;;;;;;2604044;54;20887;31
2023/01/24 04:51:44;;;;;;;74.25;35.45;;;1.90;99.90;;;;;;2603817;54;19946;31
2023/01/24 04:54:25;;;;;;;81.67;36.70;;;1.90;99.90;;;;;;2622809;46;20049;31
2023/01/24 04:57:00;;;;;;;84.13;37.87;;;1.90;99.90;;;;;;2603758;54;21384;31
2023/01/24 04:59:39;;;;;;;83.35;39.40;;;1.90;99.90;;;;;;2622177;46;20056;31
2023/01/24 05:02:17;;;;;;;77.18;35.83;;;1.90;99.90;;;;;;2603881;54;20077;31
2023/01/24 05:04:53;;;;;;;69.15;35.80;;;1.90;99.90;;;;;;2603908;54;20022;31
2023/01/24 05:07:27;;;;;;;76.85;35.90;;;1.90;99.90;;;;;;2603882;54;20085;31
2023/01/24 05:10:09;;;;;;;74.30;34.70;;;1.90;99.90;;;;;;2603928;54;20027;31
2023/01/24 05:12:43;;;;;;;74.15;36.22;;;2.00;99.90;;;;;;2603680;54;20034;31
2023/01/24 05:15:30;;;;;;;82.60;41.35;;;1.90;99.90;;;;;;2603871;54;20860;31
2023/01/24 05:18:06;;;;;;;78.25;36.80;;;1.90;99.90;;;;;;2603633;54;20939;31
2023/01/24 05:20:42;;;;;;;81.53;37.08;;;1.90;99.90;;;;;;2603788;54;20046;31
2023/01/24 05:23:17;;;;;;;72.70;36.67;;;1.90;99.90;;;;;;2603791;54;20042;31
2023/01/24 05:25:55;;;;;;;83.40;40.67;;;2.00;99.90;;;;;;2603721;54;20089;31
2023/01/24 05:28:30;;;;;;;83.05;39.70;;;2.00;99.90;;;;;;2603904;54;20871;31
2023/01/24 05:31:09;;;;;;;81.25;40.95;;;1.90;99.90;;;;;;2603568;54;20038;31
2023/01/24 05:33:44;;;;;;;79.97;41.92;;;2.00;99.90;;;;;;2603641;54;20093;31
2023/01/24 05:36:22;;;;;;;66.25;34.90;;;1.90;99.90;;;;;;2622500;46;20823;31
2023/01/24 05:38:56;;;;;;;79.77;36.07;;;2.00;99.90;;;;;;2622184;46;20085;31
2023/01/24 05:41:33;;;;;;;74.33;36.17;;;2.00;99.90;;;;;;2603992;54;20887;31
2023/01/24 05:44:09;;;;;;;76.93;35.65;;;1.90;99.90;;;;;;2603581;54;20267;31
2023/01/24 05:46:50;;;;;;;74.65;34.95;;;1.90;99.90;;;;;;2603630;54;20023;31
2023/01/24 05:49:32;;;;;;;79.38;35.70;;;1.90;99.90;;;;;;2603328;54;20024;31
2023/01/24 05:52:07;;;;;;;72.15;34.35;;;1.90;99.90;;;;;;2603709;54;20034;31
2023/01/24 05:54:51;;;;;;;70.90;33.70;;;2.00;99.90;;;;;;2603625;54;20905;31
2023/01/24 05:57:40;;;;;;;74.82;34.63;;;2.00;99.90;;;;;;2603773;54;20035;31
2023/01/24 06:00:42;;;;;;;69.88;34.63;;;2.00;99.90;;;;;;2603582;54;20030;31
2023/01/24 06:06:39;;;;;;;67.65;34.25;;;2.00;99.90;;;;;;2603890;46;20784;31
2023/01/24 06:09:20;;;;;;;72.70;35.63;;;1.90;99.90;;;;;;2603543;54;20645;31
2023/01/24 06:12:04;;;;;;;72.80;34.77;;;1.90;99.90;;;;;;2603818;54;20033;31
2023/01/24 06:14:43;;;;;;;67.35;32.88;;;1.90;99.90;;;;;;2603663;54;20829;31
2023/01/24 06:17:30;;;;;;;69.55;33.70;;;1.90;99.90;;;;;;2615617;46;20589;31
2023/01/24 06:20:12;;;;;;;72.97;34.60;;;1.90;99.90;;;;;;2621818;46;20026;31
2023/01/24 06:22:51;;;;;;;73.40;34.03;;;2.00;99.90;;;;;;2603548;54;20910;31
2023/01/24 06:28:21;;;;;;;64.60;31.93;;;1.90;99.90;;;;;;2603676;54;20034;31
2023/01/24 06:31:02;;;;;;;76.97;36.65;;;1.90;99.90;;;;;;2773218;31;21396;31
2023/01/24 06:33:52;;;;;;;77.63;34.63;;;1.90;99.90;;;;;;2602630;54;20796;31
2023/01/24 06:36:41;;;;;;;72.28;34.45;;;1.90;99.90;;;;;;2621880;46;20573;31
2023/01/24 06:42:10;;;;;;;77.72;36.35;;;1.90;99.90;;;;;;2603384;54;20085;31
2023/01/24 06:44:45;;;;;;;73.63;34.33;;;1.90;99.90;;;;;;2603462;54;20089;31
2023/01/24 06:47:26;;;;;;;71.80;32.50;;;2.00;99.90;;;;;;2622130;46;20558;31
2023/01/24 06:50:04;;;;;;;66.82;33.25;;;2.00;99.90;;;;;;2603563;54;20061;31
2023/01/24 06:52:43;;;;;;;71.85;34.00;;;2.00;99.90;;;;;;2621720;46;20799;31
2023/01/24 06:55:24;;;;;;;68.80;32.90;;;2.00;99.90;;;;;;2622056;46;20919;31
2023/01/24 06:57:59;;;;;;;73.25;34.67;;;2.00;99.90;;;;;;2603349;54;20249;31
2023/01/24 07:00:43;;;;;;;74.97;34.80;;;2.00;99.90;;;;;;2621202;46;21270;31
2023/01/24 07:03:19;;;;;;;66.90;32.20;;;2.00;99.90;;;;;;2702101;39;20504;31
2023/01/24 07:06:02;;;;;;;69.50;34.20;;;2.00;99.90;;;;;;2603646;54;20033;31
2023/01/24 07:08:49;;;;;;;65.60;32.35;;;2.00;99.90;;;;;;2603490;54;20090;31
2023/01/24 07:12:05;;;;;;;70.78;33.40;;;2.00;99.90;;;;;;2603149;54;20883;31
2023/01/24 07:14:56;;;;;;;68.80;32.87;;;2.00;99.90;;;;;;2603467;54;20097;31
2023/01/24 07:17:35;;;;;;;70.43;36.13;;;2.00;99.90;;;;;;2602814;54;20997;31
2023/01/24 07:20:13;;;;;;;66.22;31.95;;;2.10;99.90;;;;;;2603394;54;20799;31
2023/01/24 07:22:53;;;;;;;75.65;35.45;;;2.10;99.90;;;;;;2603386;54;20039;31
2023/01/24 07:25:34;;;;;;;67.60;34.85;;;2.00;99.90;;;;;;2603366;54;20050;31
2023/01/24 07:28:19;;;;;;;68.57;34.53;;;2.10;99.90;;;;;;2602737;54;20883;31
2023/01/24 07:30:55;;;;;;;68.73;34.37;;;2.10;99.90;;;;;;2603249;54;20936;31
2023/01/24 07:33:30;;;;;;;70.15;34.85;;;2.10;99.90;;;;;;2603383;54;20330;31
2023/01/24 07:36:16;;;;;;;67.95;34.13;;;2.10;99.90;;;;;;2603129;54;20871;31
2023/01/24 07:38:51;;;;;;;74.55;34.95;;;2.10;99.90;;;;;;2603395;54;20009;31
2023/01/24 07:41:29;;;;;;;76.35;35.55;;;2.10;99.90;;;;;;2603299;54;20121;31
2023/01/24 07:44:08;;;;;;;78.87;36.40;;;2.10;99.90;;;;;;2603242;54;20038;31
2023/01/24 07:46:42;;;;;;;68.43;34.77;;;2.10;99.90;;;;;;2603376;54;20867;31
2023/01/24 07:49:16;;;;;;;67.50;36.15;;;2.10;99.90;;;;;;2603378;54;20026;31
2023/01/24 07:51:51;;;;;;;62.03;33.58;;;2.10;99.90;;;;;;2603139;54;20919;31
2023/01/24 07:54:26;;;;;;;84.90;38.50;;;2.10;99.90;;;;;;2603182;54;20795;31
2023/01/24 07:57:04;;;;;;;94.55;44.15;;;2.20;99.90;;;;;;2603294;54;20045;31
2023/01/24 07:59:39;;;;;;;107.25;48.22;;;2.10;99.90;;;;;;2602943;54;20945;31
2023/01/24 08:02:14;;;;;;;127.07;57.75;;;2.10;99.90;;;;;;2603285;54;20812;31
2023/01/24 08:04:49;;;;;;;114.80;48.85;;;2.20;99.90;;;;;;2603297;54;20064;31
2023/01/24 08:07:24;;;;;;;80.40;36.70;;;2.20;99.90;;;;;;2621572;46;20834;31
2023/01/24 08:09:59;;;;;;;115.85;53.88;;;2.20;99.90;;;;;;2621680;46;19942;31
2023/01/24 08:12:37;;;;;;;90.80;40.80;;;2.20;99.90;;;;;;2603171;54;20026;31
2023/01/24 08:15:14;;;;;;;110.10;49.10;;;2.20;99.90;;;;;;2603123;54;20056;31
2023/01/24 08:17:49;;;;;;;127.30;53.80;;;2.20;99.90;;;;;;2603190;54;20045;31
2023/01/24 08:20:24;;;;;;;94.30;41.15;;;2.20;99.90;;;;;;2621484;46;20082;31
2023/01/24 08:22:59;;;;;;;129.85;54.25;;;2.20;99.90;;;;;;2602511;54;20030;31
2023/01/24 08:25:34;;;;;;;77.95;38.70;;;2.20;99.90;;;;;;2621120;46;20891;31
2023/01/24 08:28:11;;;;;;;106.10;45.90;;;2.20;99.90;;;;;;2603249;54;20848;31
2023/01/24 08:30:46;;;;;;;156.10;65.85;;;2.30;99.90;;;;;;2602330;54;20127;31
2023/01/24 08:33:22;;;;;;;158.75;63.38;;;2.30;99.90;;;;;;2601314;54;20030;31
2023/01/24 08:35:57;;;;;;;98.25;44.90;;;2.30;99.90;;;;;;2700430;39;21297;31
2023/01/24 08:38:33;;;;;;;70.78;34.42;;;2.30;99.90;;;;;;2602729;54;20031;31
2023/01/24 08:41:07;;;;;;;75.65;37.05;;;2.40;99.90;;;;;;2621004;47;20851;31
2023/01/24 08:43:45;;;;;;;81.32;41.55;;;2.50;99.90;;;;;;2621303;47;20866;31
2023/01/24 08:46:20;;;;;;;82.55;37.42;;;2.50;99.90;;;;;;2603142;54;20040;31
2023/01/24 08:48:55;;;;;;;76.35;38.40;;;2.60;99.90;;;;;;2603080;54;20574;31
2023/01/24 08:51:30;;;;;;;73.30;35.58;;;2.60;99.90;;;;;;2701565;39;20489;31
2023/01/24 08:54:09;;;;;;;75.85;36.60;;;2.60;99.90;;;;;;2603041;54;20105;31
2023/01/24 08:56:49;;;;;;;74.78;37.45;;;2.60;99.90;;;;;;2610832;47;20034;31
2023/01/24 08:59:27;;;;;;;75.45;36.05;;;2.60;99.90;;;;;;2602101;54;20034;31
2023/01/24 09:02:02;;;;;;;74.10;35.95;;;2.60;99.90;;;;;;2621023;47;20030;31
2023/01/24 09:04:37;;;;;;;;;;;2.60;99.90;;;;;;2621245;47;20038;31
2023/01/24 09:07:13;;;;;;;74.20;35.00;;;2.60;99.90;;;;;;2621332;47;19941;31
2023/01/24 09:09:49;;;;;;;74.95;35.55;;;2.60;99.90;;;;;;2621659;47;20929;31
2023/01/24 09:12:28;;;;;;;73.93;37.03;;;2.60;99.90;;;;;;2602719;54;19934;31
2023/01/24 09:15:08;;;;;;;68.05;33.83;;;2.60;99.90;;;;;;2621035;47;20022;31
2023/01/24 09:17:46;;;;;;;75.88;36.47;;;2.60;99.90;;;;;;2700751;39;21174;31
2023/01/24 09:20:25;;;;;;;69.90;36.33;;;2.70;99.90;;;;;;2602897;54;20033;31
2023/01/24 09:23:02;;;;;;;72.00;36.60;;;2.70;99.90;;;;;;2621002;47;20781;31
2023/01/24 09:25:39;;;;;;;72.93;37.03;;;2.70;99.90;;;;;;2603592;54;20928;31
2023/01/24 09:28:19;;;;;;;;;;;2.70;99.90;;;;;;2617618;46;20254;31
2023/01/24 09:31:00;;;;;;;69.50;34.28;;;2.70;99.90;;;;;;2603171;54;19934;31
2023/01/24 09:33:37;;;;;;;73.00;36.40;;;2.70;99.90;;;;;;2602723;54;20919;31
2023/01/24 09:36:24;;;;;;;71.05;35.42;;;2.70;99.90;;;;;;2603597;54;20924;31
2023/01/24 09:39:01;;;;;;;75.13;36.15;;;2.70;99.90;;;;;;2702351;39;20393;31
2023/01/24 09:41:51;;;;;;;69.53;36.87;;;2.70;99.90;;;;;;2603639;54;20034;31
2023/01/24 09:44:48;;;;;;;74.45;36.08;;;2.80;99.90;;;;;;2622129;46;20038;31
2023/01/24 09:47:25;;;;;;;77.67;37.43;;;2.80;99.90;;;;;;2622171;46;20022;31
2023/01/24 09:50:07;;;;;;;80.45;37.22;;;2.80;99.90;;;;;;2603476;54;20744;31
2023/01/24 09:52:44;;;;;;;72.25;39.90;;;2.80;99.90;;;;;;2603542;54;20026;31
2023/01/24 09:55:23;;;;;;;72.97;36.40;;;2.80;99.90;;;;;;2603588;54;20925;31
2023/01/24 10:00:51;;;;;;;73.97;36.65;;;2.90;99.90;;;;;;2622237;46;20054;31
2023/01/24 10:03:29;;;;;;;78.13;37.42;;;2.90;99.90;;;;;;2622156;46;20116;31
2023/01/24 10:06:04;;;;;;;79.30;39.30;;;2.90;99.90;;;;;;2622115;46;20027;31
2023/01/24 10:08:46;;;;;;;78.90;36.60;;;2.90;99.90;;;;;;2622292;46;20042;31
2023/01/24 10:11:27;;;;;;;77.32;36.95;;;3.00;99.90;;;;;;2603520;54;20026;31
2023/01/24 10:14:25;;;;;;;72.68;37.42;;;3.00;99.90;;;;;;2603620;54;20875;31
2023/01/24 10:17:32;;;;;;;67.53;36.15;;;3.00;99.90;;;;;;2603124;54;20019;31
2023/01/24 10:20:23;;;;;;;70.35;34.40;;;3.00;99.90;;;;;;2621635;46;20030;31
2023/01/24 10:23:06;;;;;;;66.78;34.63;;;3.10;99.90;;;;;;2603581;54;20026;31
2023/01/24 10:25:54;;;;;;;67.05;34.75;;;3.20;99.90;;;;;;2621798;46;20968;31
2023/01/24 10:28:32;;;;;;;67.55;34.95;;;3.20;99.90;;;;;;2603694;54;20030;31
2023/01/24 10:31:14;;;;;;;72.97;36.85;;;3.30;99.90;;;;;;2622150;46;20054;31
2023/01/24 10:33:52;;;;;;;66.83;36.73;;;3.30;99.90;;;;;;2603130;54;20026;31
2023/01/24 10:36:37;;;;;;;71.63;36.65;;;3.30;99.90;;;;;;2603349;54;21088;31
2023/01/24 10:39:28;;;;;;;71.18;35.38;;;3.30;99.90;;;;;;2603450;54;20049;31
2023/01/24 10:42:17;;;;;;;89.32;46.50;;;3.20;99.90;;;;;;2603255;54;20859;31
2023/01/24 10:48:02;;;;;;;68.72;35.40;;;3.30;99.90;;;;;;2603226;54;21388;31
2023/01/24 10:50:47;;;;;;;73.22;36.10;;;3.40;99.90;;;;;;2603477;54;19993;31
2023/01/24 10:53:27;;;;;;;71.82;36.28;;;3.40;99.90;;;;;;2603207;54;20136;31
2023/01/24 10:58:43;;;;;;;67.28;36.15;;;3.40;99.90;;;;;;2602725;54;20054;31
2023/01/24 11:01:22;;;;;;;70.38;37.28;;;3.50;99.90;;;;;;2603390;54;20046;31
2023/01/24 11:04:24;;;;;;;69.90;36.57;;;3.40;99.90;;;;;;2603474;54;20939;31
2023/01/24 11:07:03;;;;;;;68.97;37.75;;;3.50;99.90;;;;;;2603085;54;21309;31
2023/01/24 11:09:47;;;;;;;74.70;37.10;;;3.50;99.90;;;;;;2602593;54;20030;31
2023/01/24 11:12:27;;;;;;;73.97;37.20;;;3.60;99.90;;;;;;2621964;46;20033;31
2023/01/24 11:15:17;;;;;;;71.05;36.58;;;3.60;99.90;;;;;;2603474;54;20027;31
2023/01/24 11:17:53;;;;;;;71.90;36.80;;;3.60;99.90;;;;;;2603306;54;20130;31
2023/01/24 11:20:35;;;;;;;71.45;37.20;;;3.60;99.90;;;;;;2603056;54;20026;31
2023/01/24 11:23:18;;;;;;;68.20;35.63;;;3.70;99.90;;;;;;2773259;31;20584;31
2023/01/24 11:25:55;;;;;;;70.95;38.05;;;3.90;99.90;;;;;;2603202;54;20897;31
2023/01/24 11:28:39;;;;;;;67.82;37.22;;;3.90;99.90;;;;;;2603359;54;20034;31
2023/01/24 11:31:20;;;;;;;68.75;34.60;;;4.00;99.90;;;;;;2603288;54;20022;31
2023/01/24 11:39:33;;;;;;;68.33;36.73;;;3.90;99.90;;;;;;2602644;54;20762;31
2023/01/24 11:42:14;;;;;;;64.20;32.70;;;3.90;99.90;;;;;;2603256;54;20774;31
2023/01/24 11:45:00;;;;;;;81.50;43.78;;;3.90;99.90;;;;;;2603191;54;20027;31
2023/01/24 11:47:43;;;;;;;61.33;32.53;;;3.90;99.90;;;;;;2603005;54;20765;31
2023/01/24 11:54:01;;;;;;;61.10;32.85;;;4.00;99.90;;;;;;2602643;54;20038;31
2023/01/24 11:56:42;;;;;;;54.22;30.85;;;4.00;99.90;;;;;;2603103;54;20870;31
2023/01/24 11:59:37;;;;;;;60.72;32.60;;;4.00;99.90;;;;;;2602293;54;20907;31
2023/01/24 12:02:51;;;;;;;52.47;28.25;;;4.00;99.90;;;;;;2603101;54;20030;31
2023/01/24 12:05:31;;;;;;;56.53;29.08;;;4.00;99.90;;;;;;2602978;54;20743;31
2023/01/24 12:08:17;;;;;;;55.95;31.40;;;4.00;99.90;;;;;;2603315;54;20089;31
2023/01/24 12:11:05;;;;;;;60.30;31.27;;;4.00;99.90;;;;;;2621718;46;20172;31
2023/01/24 12:14:03;;;;;;;50.90;29.05;;;4.00;99.90;;;;;;2603295;54;20756;31
2023/01/24 12:16:46;;;;;;;57.75;31.60;;;4.00;99.90;;;;;;2603161;54;20487;31
2023/01/24 12:19:44;;;;;;;55.70;29.53;;;4.00;99.90;;;;;;2621708;46;20925;31
2023/01/24 12:22:28;;;;;;;58.90;32.77;;;4.10;99.90;;;;;;2603006;54;20890;31
2023/01/24 12:25:14;;;;;;;64.15;35.50;;;4.10;99.90;;;;;;2603069;54;20912;31
2023/01/24 12:27:49;;;;;;;107.90;51.78;;;4.10;99.90;;;;;;2603144;54;20792;31
2023/01/24 12:30:42;;;;;;;105.50;54.70;;;4.10;99.90;;;;;;2603271;54;20826;31
2023/01/24 12:33:20;;;;;;;75.40;38.05;;;4.10;99.90;;;;;;2603023;54;20030;31
2023/01/24 12:35:59;;;;;;;64.40;33.20;;;4.10;99.90;;;;;;2602973;54;20108;31
2023/01/24 12:38:41;;;;;;;65.13;34.15;;;4.10;99.90;;;;;;2603123;54;20038;31
2023/01/24 12:41:24;;;;;;;63.33;32.10;;;4.10;99.90;;;;;;2602305;54;20022;31
2023/01/24 12:44:03;;;;;;;58.55;33.05;;;4.10;99.90;;;;;;2602964;54;20148;31
2023/01/24 12:46:38;;;;;;;65.20;32.95;;;4.10;99.90;;;;;;2603186;54;20108;31
2023/01/24 12:49:22;;;;;;;70.30;36.00;;;4.10;99.90;;;;;;2602951;54;20092;31
2023/01/24 12:52:06;;;;;;;64.35;33.65;;;4.10;99.90;;;;;;2603051;54;20242;31
2023/01/24 12:54:46;;;;;;;62.22;33.97;;;4.10;99.90;;;;;;2602914;54;20872;31
2023/01/24 12:57:32;;;;;;;64.03;33.20;;;4.10;99.90;;;;;;2602608;54;20815;31
2023/01/24 13:00:22;;;;;;;72.13;37.83;;;4.20;99.90;;;;;;2603019;54;20074;31
2023/01/24 13:03:21;;;;;;;76.30;43.43;;;4.10;99.90;;;;;;2603686;54;20867;31
2023/01/24 13:06:22;;;;;;;67.20;39.40;;;4.20;99.90;;;;;;2622404;46;20305;31
2023/01/24 13:08:57;;;;;;;63.28;36.58;;;4.10;99.90;;;;;;2603905;54;20871;31
2023/01/24 13:11:48;;;;;;;64.88;33.20;;;4.10;99.90;;;;;;2603996;54;20085;31
2023/01/24 13:20:56;;;;;;;;;;;;;;;;;;;;;
2023/01/24 13:23:52;;;;;;;62.25;33.78;;;4.20;99.90;;;;;;2603613;54;20831;31
2023/01/24 13:26:40;;;;;;;60.45;33.75;;;4.20;99.90;;;;;;2603718;54;20042;31
2023/01/24 13:31:57;;;;;;;64.70;33.58;;;4.20;99.90;;;;;;2603123;54;20041;31
2023/01/24 13:34:35;;;;;;;62.58;33.40;;;4.20;99.90;;;;;;2603029;54;20030;31
2023/01/24 13:37:17;;;;;;;65.13;32.05;;;4.20;99.90;;;;;;2603699;54;20109;31
2023/01/24 13:40:03;;;;;;;59.00;32.10;;;4.10;99.90;;;;;;2603642;54;20033;31
2023/01/24 13:42:45;;;;;;;60.40;30.98;;;4.10;99.90;;;;;;2603666;54;20046;31
2023/01/24 13:45:49;;;;;;;61.03;31.40;;;4.10;99.90;;;;;;2603730;54;20026;31
2023/01/24 13:48:45;;;;;;;56.42;28.75;;;4.10;99.90;;;;;;2603709;54;20208;31
2023/01/24 13:51:54;;;;;;;54.60;29.40;;;4.00;99.90;;;;;;2603909;54;20022;31
2023/01/24 13:54:39;;;;;;;65.70;35.03;;;4.10;99.90;;;;;;2603507;54;20942;31
2023/01/24 13:57:14;;;;;;;65.80;32.65;;;4.10;99.90;;;;;;2603701;54;20294;31
2023/01/24 14:00:15;;;;;;;59.63;32.88;;;4.10;99.90;;;;;;2603577;54;20912;31
2023/01/24 14:03:16;;;;;;;63.22;32.90;;;4.10;99.90;;;;;;2621960;46;20037;31
2023/01/24 14:06:15;;;;;;;62.10;32.25;;;4.00;99.90;;;;;;2603550;54;20030;31
2023/01/24 14:08:57;;;;;;;63.73;32.17;;;4.00;99.90;;;;;;2603468;54;20027;31
2023/01/24 14:11:31;;;;;;;65.80;33.67;;;4.00;99.90;;;;;;2603705;54;20034;31
2023/01/24 14:14:24;;;;;;;63.17;33.45;;;4.00;99.90;;;;;;2603592;54;20034;31
2023/01/24 14:16:58;;;;;;;65.70;35.00;;;4.00;99.90;;;;;;2603480;54;20029;31
2023/01/24 15:08:49;;;;;;;76.50;41.50;;;3.70;99.90;;;;;;2603476;54;20246;31
2023/01/24 15:14:52;;;;;;;76.20;38.90;;;3.70;99.90;;;;;;2602767;54;20971;31
2023/01/24 15:17:31;;;;;;;83.50;40.45;;;3.70;99.90;;;;;;2602507;54;20107;31
2023/01/24 15:20:10;;;;;;;81.60;40.10;;;3.70;99.90;;;;;;2621725;46;20081;31
2023/01/24 15:22:46;;;;;;;79.80;40.43;;;3.70;99.90;;;;;;2602224;54;22403;31
2023/01/24 15:25:23;;;;;;;79.22;40.10;;;3.70;99.90;;;;;;2621582;46;20254;31
2023/01/24 15:27:57;;;;;;;77.85;39.95;;;3.70;99.90;;;;;;2621888;46;20092;31
2023/01/24 15:30:33;;;;;;;86.27;43.00;;;3.70;99.90;;;;;;2603312;54;20792;31
2023/01/24 15:44:54;;;;;;;79.88;39.88;;;3.70;99.90;;;;;;2621863;46;20097;31
2023/01/24 15:54:26;;;;;;;92.40;46.15;;;3.70;99.90;;;;;;2602952;54;20033;31
2023/01/24 16:55:54;;;;;;;108.17;51.70;;;3.50;99.90;;;;;;2600581;54;20864;31
2023/01/24 16:58:33;;;;;;;124.43;63.22;;;3.60;99.90;;;;;;2602104;54;20360;31
2023/01/24 17:48:35;;;;;;;108.15;51.53;;;3.30;99.90;;;;;;2602751;54;20966;31
2023/01/24 17:54:45;;;;;;;96.78;46.88;;;3.30;99.90;;;;;;2603688;54;20924;31
2023/01/24 17:58:42;;;;;;;90.18;43.47;;;3.40;99.90;;;;;;2631607;54;20007;-94
2023/01/24 18:40:02;;;;;;;94.15;46.15;;;3.20;99.90;;;;;;2601513;54;20894;31
2023/01/24 18:42:44;;;;;;;101.95;49.80;;;3.20;99.90;;;;;;2620199;46;20915;31
2023/01/24 18:45:42;;;;;;;101.30;47.10;;;3.20;99.90;;;;;;2603196;54;20026;31
2023/01/24 19:14:25;;;;;;;101.00;50.70;;;3.20;99.90;;;;;;2600856;54;20921;31
2023/01/24 19:24:17;;;;;;;;;;;;;;;;;;;;;
2023/01/24 20:50:08;;;;;;;;;;;;;;;;;;;;;